Hydaburg Seaplane Base

About
Name: Hydaburg Seaplane Base
Identifier:  HYG/PAHY
Serves:  Hydaburg, Alaska
Owner:  Alaska DOT&PF - Southeast Region
Public/Private:  Public
Local Time:  22. Aug 21:16 AKDT
Description: Hydaburg Seaplane Base is a state owned, public use seaplane base located in Hydaburg, a city in the Prince of Wales-Hyder Census Area of the U.S. state of Alaska. It is included in the National Plan of Integrated Airport Systems for 2011–2015, which categorized it as a general aviation facility.
Source: Wikipedia
Location
Runways
Identifier Length (m/ft) Surface
E/W 5,000/5,000 Water
Flights per Day
0 flights
Distance: 72km (45mi)
Punctuality
50% (0 flights per day delayed)
Delay Average: 1413 minutes
Current Weather
 14 C (Humidity: 87%)
  8kt (14km/h / 9mph) from 100°
16 knots Gusts

  Few clouds at 1,100 feet (335 meter)
  Scattered clouds at 2,000 feet (609 meter)
  Overcast at 4,700 feet (1,432 meter)
  16km (10 mi.)
 METAR PAHY 240831Z AUTO 10008G16KT 10SM FEW011 SCT020 OVC047 14/12 A3004 RMK AO2 $

Current Flights

Departures
Number Departure To Airline
Arrivals
Number Arrival From Airline

Current Delays

Departures
N/A
Arrivals
N/A